createdAt,value
2019-04-16T00:02:08.146Z,8.40
2019-04-16T00:05:03.674Z,8.40
2019-04-16T00:07:56.227Z,8.40
2019-04-16T00:10:44.037Z,8.30
2019-04-16T00:13:23.197Z,8.20
2019-04-16T00:15:55.028Z,8.30
2019-04-16T00:18:25.070Z,8.30
2019-04-16T00:21:19.887Z,8.40
2019-04-16T00:24:19.197Z,8.30
2019-04-16T00:26:58.000Z,8.20
2019-04-16T00:29:25.518Z,8.10
2019-04-16T00:32:00.047Z,8.00
2019-04-16T00:34:30.005Z,8.00
2019-04-16T00:36:59.918Z,7.80
2019-04-16T00:39:29.893Z,7.90
2019-04-16T00:41:59.805Z,8.00
2019-04-16T00:44:30.150Z,8.10
2019-04-16T00:47:00.132Z,7.90
2019-04-16T00:49:30.007Z,7.80
2019-04-16T00:51:59.990Z,7.70
2019-04-16T00:54:29.971Z,7.50
2019-04-16T00:57:00.170Z,7.40
2019-04-16T00:59:30.242Z,7.50
2019-04-16T01:02:00.345Z,7.40
2019-04-16T01:04:30.394Z,7.60
2019-04-16T01:07:00.521Z,7.60
2019-04-16T01:09:30.661Z,7.50
2019-04-16T01:12:00.665Z,7.20
2019-04-16T01:14:30.711Z,6.90
2019-04-16T01:17:03.853Z,7.00
2019-04-16T01:19:32.330Z,7.10
2019-04-16T01:22:02.357Z,7.20
2019-04-16T01:24:33.433Z,7.20
2019-04-16T01:27:03.499Z,7.20
2019-04-16T01:29:34.539Z,7.20
2019-04-16T01:32:30.691Z,7.30
2019-04-16T01:35:19.855Z,7.30
2019-04-16T01:38:08.819Z,7.20
2019-04-16T01:40:55.120Z,7.20
2019-04-16T01:43:25.872Z,7.20
2019-04-16T01:46:00.838Z,7.20
2019-04-16T01:48:27.992Z,7.20
2019-04-16T01:50:58.523Z,7.10
2019-04-16T01:53:28.843Z,7.20
2019-04-16T01:55:58.897Z,7.10
2019-04-16T01:58:33.504Z,7.00
2019-04-16T02:01:00.780Z,6.80
2019-04-16T02:03:30.772Z,6.80
2019-04-16T02:06:01.227Z,6.90
2019-04-16T02:08:31.826Z,7.00
2019-04-16T02:11:01.934Z,6.90
2019-04-16T02:13:31.950Z,6.80
2019-04-16T02:16:01.997Z,7.00
2019-04-16T02:18:31.967Z,6.90
2019-04-16T02:21:03.015Z,6.70
2019-04-16T02:23:33.137Z,6.70
2019-04-16T02:26:03.123Z,6.70
2019-04-16T02:28:33.086Z,6.70
2019-04-16T02:31:03.109Z,6.70
2019-04-16T02:33:33.081Z,6.70
2019-04-16T02:36:03.093Z,6.60
2019-04-16T02:38:33.085Z,6.70
2019-04-16T02:41:02.961Z,6.70
2019-04-16T02:43:39.583Z,6.60
2019-04-16T02:46:04.937Z,6.60
2019-04-16T02:48:35.018Z,6.60
2019-04-16T02:51:13.812Z,6.50
2019-04-16T02:54:18.398Z,6.50
2019-04-16T02:57:13.404Z,6.50
2019-04-16T02:59:47.273Z,6.50
2019-04-16T03:02:38.085Z,6.50
2019-04-16T03:05:14.107Z,6.30
2019-04-16T03:07:44.201Z,6.40
2019-04-16T03:10:14.496Z,6.30
2019-04-16T03:12:44.399Z,6.30
2019-04-16T03:15:17.692Z,6.40
2019-04-16T03:17:47.577Z,6.50
2019-04-16T03:20:20.817Z,6.40
2019-04-16T03:22:49.550Z,6.40
2019-04-16T03:25:19.536Z,6.30
2019-04-16T03:27:51.473Z,6.40
2019-04-16T03:30:21.113Z,6.40
2019-04-16T03:32:51.816Z,6.30
2019-04-16T03:35:25.538Z,6.20
2019-04-16T03:37:53.548Z,6.20
2019-04-16T03:40:25.425Z,6.30
2019-04-16T03:42:58.892Z,6.30
2019-04-16T03:45:27.340Z,6.30
2019-04-16T03:47:57.333Z,6.20
2019-04-16T03:50:31.113Z,6.10
2019-04-16T03:52:59.308Z,5.90
2019-04-16T03:55:29.265Z,6.00
2019-04-16T03:57:59.250Z,6.00
2019-04-16T04:00:30.182Z,5.90
2019-04-16T04:02:59.999Z,5.90
2019-04-16T04:05:29.973Z,5.90
2019-04-16T04:08:00.015Z,5.70
2019-04-16T04:10:34.214Z,5.80
2019-04-16T04:13:04.888Z,5.80
2019-04-16T04:15:34.340Z,5.70
2019-04-16T04:18:04.318Z,5.60
2019-04-16T04:20:35.507Z,5.60
2019-04-16T04:23:05.850Z,5.40
2019-04-16T04:25:37.004Z,5.50
2019-04-16T04:28:07.166Z,5.60
2019-04-16T04:30:37.054Z,5.70
2019-04-16T04:33:08.647Z,5.50
2019-04-16T04:35:38.721Z,5.50
2019-04-16T04:38:08.682Z,5.60
2019-04-16T04:40:44.823Z,5.40
2019-04-16T04:43:10.859Z,5.30
2019-04-16T04:45:41.522Z,5.20
2019-04-16T04:48:12.234Z,5.30
2019-04-16T04:50:42.518Z,5.30
2019-04-16T04:53:15.632Z,5.40
2019-04-16T04:55:44.819Z,5.50
2019-04-16T04:58:14.951Z,5.70
2019-04-16T05:00:45.076Z,5.60
2019-04-16T05:03:25.395Z,5.40
2019-04-16T05:05:57.152Z,5.40
2019-04-16T05:08:28.653Z,5.50
2019-04-16T05:11:02.650Z,5.50
2019-04-16T05:13:31.419Z,5.50
2019-04-16T05:16:01.962Z,5.60
2019-04-16T05:18:32.741Z,5.70
2019-04-16T05:21:02.690Z,5.60
2019-04-16T05:23:32.670Z,5.80
2019-04-16T05:26:04.718Z,5.80
2019-04-16T05:28:35.478Z,5.90
2019-04-16T05:31:05.472Z,5.90
2019-04-16T05:33:37.347Z,5.80
2019-04-16T05:36:07.443Z,5.80
2019-04-16T05:38:37.433Z,5.80
2019-04-16T05:41:13.551Z,6.00
2019-04-16T05:43:39.105Z,6.00
2019-04-16T05:46:09.865Z,5.90
2019-04-16T05:48:40.174Z,5.90
2019-04-16T05:51:10.154Z,5.90
2019-04-16T05:53:41.813Z,5.90
2019-04-16T05:56:29.623Z,5.80
2019-04-16T05:58:59.632Z,5.90
2019-04-16T06:01:39.134Z,5.80
2019-04-16T06:04:09.123Z,6.00
2019-04-16T06:06:39.338Z,5.90
2019-04-16T06:09:12.184Z,6.00
2019-04-16T06:11:42.091Z,6.20
2019-04-16T06:14:26.131Z,6.30
2019-04-16T06:17:31.778Z,6.40
2019-04-16T06:20:24.450Z,6.50
2019-04-16T06:23:02.667Z,6.50
2019-04-16T06:25:41.310Z,6.70
2019-04-16T06:28:33.099Z,6.80
2019-04-16T06:31:26.468Z,6.80
2019-04-16T06:34:09.813Z,7.00
2019-04-16T06:37:00.611Z,7.10
2019-04-16T06:39:48.495Z,7.20
2019-04-16T06:42:38.658Z,7.20
2019-04-16T06:45:19.687Z,7.30
2019-04-16T06:47:56.897Z,7.50
2019-04-16T06:50:44.845Z,7.70
2019-04-16T06:53:53.957Z,7.80
2019-04-16T06:56:41.655Z,7.90
2019-04-16T06:59:36.602Z,8.10
2019-04-16T07:02:25.514Z,8.30
2019-04-16T07:05:04.694Z,8.30
2019-04-16T07:07:56.949Z,8.60
2019-04-16T07:10:43.717Z,8.60
2019-04-16T07:13:02.597Z,8.70
2019-04-16T07:15:32.602Z,8.90
2019-04-16T07:18:05.578Z,9.10
2019-04-16T07:20:34.803Z,9.40
2019-04-16T07:23:04.906Z,9.40
2019-04-16T07:25:39.766Z,9.50
2019-04-16T07:28:12.529Z,9.80
2019-04-16T07:30:47.727Z,9.80
2019-04-16T07:33:24.220Z,9.80
2019-04-16T07:36:08.862Z,9.90
2019-04-16T07:38:56.389Z,9.90
2019-04-16T07:41:31.620Z,10.00
2019-04-16T07:44:10.789Z,10.00
2019-04-16T07:46:56.627Z,10.20
2019-04-16T07:49:42.113Z,10.30
2019-04-16T07:52:28.932Z,10.40
2019-04-16T07:55:27.529Z,10.40
2019-04-16T07:57:57.883Z,10.50
2019-04-16T08:00:27.947Z,10.40
2019-04-16T08:02:57.960Z,10.50
2019-04-16T08:05:28.283Z,10.60
2019-04-16T08:07:58.502Z,10.70
2019-04-16T08:10:28.485Z,10.80
2019-04-16T08:13:06.896Z,10.90
2019-04-16T08:15:37.158Z,10.90
2019-04-16T08:18:07.226Z,11.00
2019-04-16T08:20:37.606Z,11.20
2019-04-16T08:23:25.556Z,11.30
2019-04-16T08:26:03.863Z,11.40
2019-04-16T08:28:28.159Z,11.40
2019-04-16T08:30:58.408Z,11.40
2019-04-16T08:33:29.294Z,11.60
2019-04-16T08:35:59.544Z,11.70
2019-04-16T08:38:34.157Z,11.90
2019-04-16T08:41:01.682Z,12.10
2019-04-16T08:43:31.625Z,12.00
2019-04-16T08:46:01.634Z,12.20
2019-04-16T08:48:31.634Z,12.50
2019-04-16T08:51:04.649Z,12.60
2019-04-16T08:53:35.541Z,12.70
2019-04-16T08:56:05.748Z,12.90
2019-04-16T08:58:38.307Z,12.90
2019-04-16T09:01:08.743Z,13.10
2019-04-16T09:03:38.701Z,13.00
2019-04-16T09:06:13.108Z,13.10
2019-04-16T09:09:18.373Z,13.10
2019-04-16T09:11:51.370Z,13.20
2019-04-16T09:14:25.762Z,13.20
2019-04-16T09:17:00.811Z,13.50
2019-04-16T09:19:30.805Z,13.40
2019-04-16T09:22:00.937Z,13.40
2019-04-16T09:24:46.863Z,13.50
2019-04-16T09:27:34.272Z,13.40
2019-04-16T09:30:28.306Z,13.70
2019-04-16T09:33:08.282Z,14.20
2019-04-16T09:35:59.080Z,14.60
2019-04-16T09:38:37.857Z,14.50
2019-04-16T09:41:22.118Z,14.40
2019-04-16T09:43:57.246Z,14.40
2019-04-16T09:46:49.590Z,14.60
2019-04-16T09:48:58.709Z,14.50
2019-04-16T09:51:28.970Z,14.70
2019-04-16T09:53:59.323Z,14.60
2019-04-16T09:56:30.172Z,14.80
2019-04-16T09:59:11.041Z,14.70
2019-04-16T10:01:49.029Z,14.80
2019-04-16T10:04:20.029Z,14.80
2019-04-16T10:06:50.537Z,15.00
2019-04-16T10:09:22.549Z,15.00
2019-04-16T10:11:52.723Z,15.30
2019-04-16T10:14:22.802Z,15.40
2019-04-16T10:16:52.802Z,15.40
2019-04-16T10:19:22.881Z,15.50
2019-04-16T10:21:54.255Z,15.50
2019-04-16T10:24:46.888Z,15.60
2019-04-16T10:27:41.955Z,15.80
2019-04-16T10:30:17.757Z,15.80
2019-04-16T10:32:47.936Z,15.90
2019-04-16T10:35:18.166Z,16.00
2019-04-16T10:37:48.222Z,16.00
2019-04-16T10:40:33.142Z,15.90
2019-04-16T10:43:21.450Z,16.30
2019-04-16T10:46:09.875Z,16.00
2019-04-16T10:48:53.499Z,16.10
2019-04-16T10:51:48.948Z,16.30
2019-04-16T10:54:37.155Z,16.70
2019-04-16T10:57:45.666Z,16.40
2019-04-16T11:00:27.203Z,16.20
2019-04-16T11:03:16.289Z,16.50
2019-04-16T11:05:59.211Z,16.70
2019-04-16T11:08:29.328Z,16.70
2019-04-16T11:10:59.554Z,16.90
2019-04-16T11:13:59.851Z,16.80
2019-04-16T11:16:21.408Z,16.90
2019-04-16T11:18:54.792Z,16.80
2019-04-16T11:21:23.079Z,16.90
2019-04-16T11:23:53.027Z,16.80
2019-04-16T11:26:23.449Z,16.90
2019-04-16T11:28:53.475Z,17.20
2019-04-16T11:31:24.120Z,17.40
2019-04-16T11:33:54.137Z,17.70
2019-04-16T11:36:24.214Z,17.80
2019-04-16T11:38:54.628Z,17.90
2019-04-16T11:41:25.029Z,18.10
2019-04-16T11:43:55.019Z,18.30
2019-04-16T11:46:25.034Z,18.50
2019-04-16T11:48:55.164Z,18.70
2019-04-16T11:51:25.241Z,18.40
2019-04-16T11:53:55.315Z,18.50
2019-04-16T11:56:25.344Z,18.50
2019-04-16T11:58:57.395Z,18.70
2019-04-16T12:01:58.640Z,18.60
2019-04-16T12:04:42.355Z,18.40
2019-04-16T12:07:34.436Z,18.30
2019-04-16T12:10:22.235Z,18.80
2019-04-16T12:13:13.987Z,18.70
2019-04-16T12:15:56.822Z,19.30
2019-04-16T12:18:45.957Z,19.00
2019-04-16T12:21:29.420Z,19.30
2019-04-16T12:24:27.175Z,19.40
2019-04-16T12:27:14.865Z,19.80
2019-04-16T12:30:02.807Z,19.70
2019-04-16T12:32:47.189Z,19.30
2019-04-16T12:35:34.431Z,19.40
2019-04-16T12:38:16.178Z,19.40
2019-04-16T12:41:00.137Z,19.30
2019-04-16T12:43:36.645Z,19.00
2019-04-16T12:46:19.877Z,19.20
2019-04-16T12:49:12.204Z,19.10
2019-04-16T12:51:48.732Z,19.40
2019-04-16T12:54:29.963Z,19.20
2019-04-16T12:57:25.400Z,19.30
2019-04-16T13:00:17.222Z,19.30
2019-04-16T13:03:05.334Z,19.40
2019-04-16T13:05:44.423Z,19.20
2019-04-16T13:08:34.545Z,19.80
2019-04-16T13:11:15.916Z,19.70
2019-04-16T13:14:11.065Z,19.90
2019-04-16T13:17:06.071Z,19.60
2019-04-16T13:19:56.150Z,19.40
2019-04-16T13:22:30.152Z,19.50
2019-04-16T13:25:31.483Z,19.40
2019-04-16T13:28:01.480Z,19.40
2019-04-16T13:30:31.806Z,19.70
2019-04-16T13:33:02.374Z,19.80
2019-04-16T13:35:32.345Z,20.00
2019-04-16T13:38:02.341Z,20.50
2019-04-16T13:40:32.303Z,20.50
2019-04-16T13:43:05.574Z,20.30
2019-04-16T13:45:38.936Z,19.80
2019-04-16T13:48:27.273Z,19.60
2019-04-16T13:50:58.307Z,19.40
2019-04-16T13:53:42.971Z,19.40
2019-04-16T13:56:20.043Z,19.90
2019-04-16T13:58:58.986Z,19.70
2019-04-16T14:01:30.315Z,19.70
2019-04-16T14:04:01.491Z,20.10
2019-04-16T14:06:32.993Z,20.20
2019-04-16T14:09:03.558Z,19.80
2019-04-16T14:11:35.326Z,19.90
2019-04-16T14:14:07.642Z,20.10
2019-04-16T14:16:37.077Z,20.00
2019-04-16T14:19:07.314Z,19.90
2019-04-16T14:21:37.413Z,19.80
2019-04-16T14:24:07.356Z,19.70
2019-04-16T14:26:37.477Z,19.70
2019-04-16T14:29:07.895Z,19.60
2019-04-16T14:31:39.167Z,19.50
2019-04-16T14:34:29.859Z,19.50
2019-04-16T14:37:00.331Z,19.40
2019-04-16T14:39:36.787Z,19.40
2019-04-16T14:42:07.356Z,19.80
2019-04-16T14:44:41.831Z,20.10
2019-04-16T14:47:12.172Z,19.80
2019-04-16T14:49:43.270Z,19.90
2019-04-16T14:52:13.653Z,20.00
2019-04-16T14:54:49.179Z,20.10
2019-04-16T14:57:19.262Z,20.20
2019-04-16T15:00:18.429Z,20.10
2019-04-16T15:03:11.073Z,19.90
2019-04-16T15:05:53.353Z,19.80
2019-04-16T15:08:38.678Z,19.80
2019-04-16T15:11:27.649Z,19.80
2019-04-16T15:14:04.733Z,19.70
2019-04-16T15:16:41.054Z,19.70
2019-04-16T15:19:26.457Z,19.70
2019-04-16T15:22:17.160Z,19.70
2019-04-16T15:25:04.891Z,19.80
2019-04-16T15:27:44.563Z,19.70
2019-04-16T15:30:31.479Z,19.40
2019-04-16T15:33:19.675Z,19.40
2019-04-16T15:36:07.677Z,19.20
2019-04-16T15:39:04.053Z,19.20
2019-04-16T15:41:54.198Z,19.20
2019-04-16T15:44:49.071Z,19.40
2019-04-16T15:47:43.010Z,19.30
2019-04-16T15:50:35.899Z,19.20
2019-04-16T15:53:23.536Z,19.20
2019-04-16T15:56:02.736Z,19.60
2019-04-16T15:58:39.090Z,19.10
2019-04-16T16:01:27.552Z,19.00
2019-04-16T16:04:13.180Z,19.30
2019-04-16T16:06:48.791Z,19.20
2019-04-16T16:09:23.331Z,19.00
2019-04-16T16:12:03.312Z,18.90
2019-04-16T16:14:38.447Z,19.00
2019-04-16T16:17:06.432Z,19.10
2019-04-16T16:19:37.370Z,18.90
2019-04-16T16:22:10.832Z,18.70
2019-04-16T16:24:42.001Z,18.50
2019-04-16T16:27:11.305Z,18.50
2019-04-16T16:29:41.290Z,18.50
2019-04-16T16:32:11.279Z,18.40
2019-04-16T16:34:41.273Z,18.40
2019-04-16T16:37:11.267Z,18.50
2019-04-16T16:39:41.427Z,18.60
2019-04-16T16:42:12.415Z,18.60
2019-04-16T16:44:42.378Z,18.60
2019-04-16T16:47:34.640Z,18.40
2019-04-16T16:50:07.279Z,18.30
2019-04-16T16:53:02.981Z,18.20
2019-04-16T16:55:42.100Z,18.10
2019-04-16T16:58:29.301Z,18.00
2019-04-16T17:01:17.558Z,17.70
2019-04-16T17:04:10.653Z,17.80
2019-04-16T17:06:40.711Z,17.60
2019-04-16T17:09:20.923Z,17.60
2019-04-16T17:11:51.591Z,17.40
2019-04-16T17:14:22.091Z,17.30
2019-04-16T17:16:52.151Z,17.20
2019-04-16T17:19:22.482Z,17.20
2019-04-16T17:21:52.482Z,17.20
2019-04-16T17:24:22.692Z,17.10
2019-04-16T17:26:52.713Z,17.00
2019-04-16T17:29:22.782Z,16.70
2019-04-16T17:31:53.712Z,16.70
2019-04-16T17:34:24.090Z,16.60
2019-04-16T17:36:54.454Z,16.50
2019-04-16T17:39:50.158Z,16.40
2019-04-16T17:42:21.732Z,16.30
2019-04-16T17:45:14.370Z,16.20
2019-04-16T17:48:09.961Z,16.20
2019-04-16T17:50:51.689Z,16.10
2019-04-16T17:53:43.638Z,15.90
2019-04-16T17:56:35.482Z,15.70
2019-04-16T17:59:08.714Z,15.70
2019-04-16T18:01:58.195Z,15.60
2019-04-16T18:04:35.680Z,15.60
2019-04-16T18:07:23.242Z,15.50
2019-04-16T18:10:10.758Z,15.40
2019-04-16T18:12:58.788Z,15.40
2019-04-16T18:15:53.618Z,15.20
2019-04-16T18:18:45.416Z,15.20
2019-04-16T18:21:33.194Z,15.10
2019-04-16T18:24:28.062Z,15.00
2019-04-16T18:27:13.234Z,15.00
2019-04-16T18:29:48.224Z,15.00
2019-04-16T18:32:36.018Z,14.90
2019-04-16T18:35:22.826Z,14.80
2019-04-16T18:38:01.895Z,14.80
2019-04-16T18:40:49.564Z,14.70
2019-04-16T18:43:35.604Z,14.60
2019-04-16T18:46:23.218Z,14.50
2019-04-16T18:48:57.387Z,14.50
2019-04-16T18:51:32.913Z,14.50
2019-04-16T18:53:59.014Z,14.40
2019-04-16T18:56:29.078Z,14.30
2019-04-16T18:58:59.064Z,14.40
2019-04-16T19:01:29.698Z,14.20
2019-04-16T19:04:01.100Z,14.10
2019-04-16T19:06:31.469Z,14.20
2019-04-16T19:09:01.452Z,14.10
2019-04-16T19:11:33.382Z,14.10
2019-04-16T19:14:03.307Z,14.00
2019-04-16T19:16:34.262Z,14.00
2019-04-16T19:19:04.515Z,13.90
2019-04-16T19:21:34.553Z,13.80
2019-04-16T19:24:04.780Z,13.80
2019-04-16T19:26:35.061Z,13.70
2019-04-16T19:29:05.975Z,13.70
2019-04-16T19:31:36.358Z,13.70
2019-04-16T19:34:10.264Z,13.70
2019-04-16T19:36:38.410Z,13.70
2019-04-16T19:39:13.516Z,13.60
2019-04-16T19:41:41.371Z,13.50
2019-04-16T19:44:11.800Z,13.50
2019-04-16T19:46:42.063Z,13.40
2019-04-16T19:49:13.659Z,13.40
2019-04-16T19:51:44.670Z,13.40
2019-04-16T19:54:14.773Z,13.30
2019-04-16T19:56:44.829Z,13.30
2019-04-16T19:59:15.097Z,13.30
2019-04-16T20:01:45.218Z,13.30
2019-04-16T20:04:15.444Z,13.20
2019-04-16T20:06:45.489Z,13.20
2019-04-16T20:09:15.738Z,13.10
2019-04-16T20:11:46.036Z,13.10
2019-04-16T20:14:15.941Z,13.00
2019-04-16T20:16:46.446Z,13.00
2019-04-16T20:19:16.450Z,13.00
2019-04-16T20:21:46.439Z,13.00
2019-04-16T20:24:16.689Z,12.90
2019-04-16T20:26:46.720Z,12.90
2019-04-16T20:29:16.629Z,12.80
2019-04-16T20:31:46.562Z,12.80
2019-04-16T20:34:18.178Z,12.70
2019-04-16T20:36:52.179Z,12.70
2019-04-16T20:39:20.963Z,12.60
2019-04-16T20:41:53.077Z,12.60
2019-04-16T20:44:22.601Z,12.50
2019-04-16T20:46:52.584Z,12.50
2019-04-16T20:49:22.568Z,12.40
2019-04-16T20:51:52.754Z,12.40
2019-04-16T20:54:22.996Z,12.40
2019-04-16T20:56:53.996Z,12.40
2019-04-16T20:59:24.346Z,12.40
2019-04-16T21:01:54.380Z,12.40
2019-04-16T21:04:24.384Z,12.40
2019-04-16T21:06:54.393Z,12.40
2019-04-16T21:09:26.764Z,12.30
2019-04-16T21:11:56.000Z,12.30
2019-04-16T21:14:25.923Z,12.30
2019-04-16T21:20:56.215Z,12.20
2019-04-16T21:23:26.267Z,12.30
2019-04-16T21:25:56.267Z,12.20
2019-04-16T21:28:33.943Z,12.10
2019-04-16T21:31:08.267Z,12.20
2019-04-16T21:33:58.209Z,12.10
2019-04-16T21:36:41.348Z,12.10
2019-04-16T21:39:20.565Z,12.10
2019-04-16T21:41:50.536Z,12.10
2019-04-16T21:44:20.514Z,12.00
2019-04-16T21:46:52.376Z,12.00
2019-04-16T21:49:37.311Z,12.00
2019-04-16T21:52:09.020Z,12.00
2019-04-16T21:54:39.508Z,11.90
2019-04-16T21:57:13.270Z,11.90
2019-04-16T21:59:41.872Z,11.90
2019-04-16T22:02:17.895Z,11.90
2019-04-16T22:04:48.856Z,11.90
2019-04-16T22:07:24.185Z,11.90
2019-04-16T22:09:50.931Z,11.90
2019-04-16T22:12:20.898Z,11.90
2019-04-16T22:14:53.730Z,11.80
2019-04-16T22:17:22.445Z,11.80
2019-04-16T22:20:00.189Z,11.80
2019-04-16T22:22:27.322Z,11.60
2019-04-16T22:24:56.465Z,11.50
2019-04-16T22:27:26.396Z,11.50
2019-04-16T22:29:56.368Z,11.40
2019-04-16T22:32:26.961Z,11.50
2019-04-16T22:34:58.931Z,11.40
2019-04-16T22:37:28.788Z,11.40
2019-04-16T22:40:22.801Z,11.40
2019-04-16T22:43:15.861Z,11.40
2019-04-16T22:45:52.232Z,11.40
2019-04-16T22:48:22.130Z,11.30
2019-04-16T22:50:52.115Z,11.30
2019-04-16T22:53:22.080Z,11.30
2019-04-16T22:55:56.353Z,11.20
2019-04-16T22:58:24.840Z,11.30
2019-04-16T23:01:02.048Z,11.20
2019-04-16T23:03:32.280Z,11.20
2019-04-16T23:06:05.513Z,11.20
2019-04-16T23:08:33.934Z,11.10
2019-04-16T23:11:04.187Z,11.10
2019-04-16T23:13:34.157Z,11.10
2019-04-16T23:16:04.564Z,11.00
2019-04-16T23:18:34.635Z,11.10
2019-04-16T23:21:09.279Z,11.10
2019-04-16T23:23:36.535Z,11.10
2019-04-16T23:26:06.780Z,11.00
2019-04-16T23:28:39.708Z,11.00
2019-04-16T23:31:09.026Z,11.00
2019-04-16T23:33:39.661Z,11.00
2019-04-16T23:36:15.356Z,10.90
2019-04-16T23:38:41.627Z,10.90
2019-04-16T23:41:15.526Z,10.90
2019-04-16T23:43:59.027Z,10.80
2019-04-16T23:46:45.153Z,10.70
2019-04-16T23:49:37.240Z,10.80
2019-04-16T23:52:16.667Z,10.80
2019-04-16T23:54:59.671Z,10.80
2019-04-16T23:57:56.790Z,10.70
